ARBO2: Arbuckle Lake

Data processed at Thu May 17 2018 23:02


All information presented herein is the property of the government of the United States of America and may be revised or deleted at any time without prior notice.
Dissemination of this information without the expressed written consent of the Public Affairs Office, Tulsa District U.S. Army Corps of Engineers is strictly prohibited.
These data are gathered electronically and, as presented, have not undergone any form of quality control. These data are not guaranteed to be valid or correct.
Go to home page.
Go to station list.

Upstream stations:

Downstream station:
Previous Day
Next Day
Current Day
    
SHEF ID:       ARBO2     Arbuckle Lake
STATION TYPE:  RESERVOIR
Normal Pool:  Bottom =   827.00, Top =   872.00

               PRECIP PRECIP(A) ELEVATION   STORAGE    INFLOW   RELEASE   VOLTAGE  BAT-LOAD
                   in        in        ft     ac-ft       cfs       cfs      volt      volt
              Ccp-Rev   Ccp-Rev   Ccp-Rev   Ccp-Rev  Regi-Rev  Regi-Rev   Ccp-Rev   Ccp-Rev
(US/Central)
05/15 00:00      0.00      ----    872.64     73920       518         1     14.10     13.48
05/15 01:00      0.45      ----    872.70     74063       520         1     14.10     13.48
05/15 02:00      0.15      ----    872.72     74110       520         1     14.10     13.00
05/15 03:00      0.05      ----    872.75     74182       462         1     14.10     12.83
05/15 04:00      0.02      ----    872.75     74182       116         1     14.10     13.07
05/15 05:00      0.01      ----    872.73     74134       174         1     14.10     13.48
05/15 06:00      0.00      ----    872.72     74110       286         1     14.10     13.48
05/15 07:00      0.00      ----    872.75     74182       286         1     14.10     13.42
05/15 08:00      0.00      ----    872.77     74229       287         1     14.10     12.24
05/15 09:00      0.00      ----    872.79     74277       287         1     14.10     13.42
05/15 10:00      0.00      ----    872.78     74253       115         1     14.10     13.42
05/15 11:00      0.00      ----    872.76     74206         1         1     14.10     13.48
05/15 12:00      0.00      ----    872.77     74229         1         1     14.10     13.48
05/15 13:00      0.00      ----    872.77     74229         1         1     14.10     13.48
05/15 14:00      0.00      ----    872.79     74277         1         1     14.10     13.42
05/15 15:00      0.00      ----    872.74     74158        58         1     14.20      0.00
05/15 16:00      0.16      ----    872.76     74206       231         1     14.10     13.53
05/15 17:00      0.00      ----    872.78     74253       864         1     14.10     13.36
05/15 18:00      0.00      ----    872.81     74324      1271         1     14.10     13.36
05/15 19:00      0.00      ----    872.92     74586      1678         1     14.10     13.53
05/15 20:00      0.00      ----    873.01     74800      1797         1     14.10     13.53
05/15 21:00      0.00      ----    873.06     74922      1801         1     14.10     13.53
05/15 22:00      0.00      ----    873.09     74995      1286         1     14.10     13.53
05/15 23:00      0.00      ----    873.12     75068       997         1     14.10     13.53